Capitol Logistics 117


PHNL
Daniel K Inouye International Airport
Honolulu, Hawaii, US
KLAX
Los Angeles International Airport
Los Angeles, California, US

Activity Log

Date Flight Route Aircraft Duration
06/30/2019 CPX227 MKK4 CLUTS R465 CIVIT R585 AUDIA SNAXX RYDRR2 B763 5h 24m
01/19/2019 CPX227 MKK4 CLUTS R465 CIVIT R585 AUDIA SNAXX RYDRR2 B763 4h 50m
01/08/2019 CPX117 MKK4 EBBER R577 ELKEY RYDRR2 MD11 4h 41m
12/04/2018 CPX127 EBBER R577 ELKEY B763 5h 17m

Route Details

Aircraft Information
Primary: Boeing 747-400BCF
Backup: Boeing 777-200LRF
Route Data
Distance: 2267nm
Sched. Duration: 5h 40m
Avg. Duration: 4h 83m (-57m)
Times Flown: 4
Recm'd Route: MKK4 CLUTS R465 CIVIT R585 AUDIA SNAXX RYDRR2
Planned Altitude: 35,000ft
Origin Wx: PHNL 181553Z 05011KT 10SM FEW025 FEW045 23/15 A3005 RMK AO2 SLP174 T02280150
Dest. Wx: KLAX 181553Z 06005KT 4SM BR SCT006 BKN011 OVC140 14/11 A3000 RMK AO2 SLP159 T01440111 $
Notes:

Financial History
Total Freight: 494,522lbs
Average Load: 123,631lbs/flt
Fuel Used: 253,639lbs
Avg. Fuel Used: 63,410lbs/flt
Fuel Expense: $184,895
Avg. Fuel Expense: $46,224
Avg. Fuel Cost: $0.73/lbs
Total Gross Income: $618,153
Pilot Pay: $756
Total Expenses: $66,968
Total Revenue: $362,200
Average Revenue: $154,538.13